Newton Falls, Ohio
Current Conditions -  °F | °C
As of 12:38 PM on Saturday 25 Oct 2014 (Local Time) from KPOV Reporting Station
Broken Clouds Broken Clouds  
Wind Chill: 62°   Ceiling: 3700
Heat Index: 62°   Visibility: 10mi
Dew Point: 46°   Wind: 10mph
Humidity: 55%   Direction: 230°SW
Pressure: 29.82"   Gusts: 20mph
Location:  41.19°N, 80.98°W
Report Text: KPOV 251638Z AUTO 23009G17KT 10SM BKN037 17/08 A2982 RMK AO2 T01670075
Loading
Personal Weather Stations






























Interactive Weather Map
Tropical Storm Tracking
New forecast layout! Learn more

10-Day Weather Forecast

Advertisements
Track Severe Weather on mobile